createdAt,value
2023-01-28T00:01:17.212Z,91.00
2023-01-28T00:03:47.144Z,91.20
2023-01-28T00:06:15.708Z,91.20
2023-01-28T00:08:43.448Z,91.40
2023-01-28T00:11:12.896Z,91.50
2023-01-28T00:13:40.538Z,91.50
2023-01-28T00:16:09.204Z,92.00
2023-01-28T00:18:39.943Z,92.40
2023-01-28T00:21:10.425Z,92.80
2023-01-28T00:23:39.934Z,93.20
2023-01-28T00:26:13.207Z,93.90
2023-01-28T00:28:44.059Z,94.40
2023-01-28T00:31:18.893Z,94.00
2023-01-28T00:33:48.132Z,94.00
2023-01-28T00:36:16.334Z,94.10
2023-01-28T00:38:44.233Z,94.30
2023-01-28T00:41:16.766Z,94.20
2023-01-28T00:43:47.584Z,94.00
2023-01-28T00:46:15.280Z,93.40
2023-01-28T00:48:44.660Z,93.20
2023-01-28T00:51:15.237Z,93.20
2023-01-28T00:53:43.359Z,93.20
2023-01-28T00:56:15.747Z,93.40
2023-01-28T00:58:43.785Z,93.80
2023-01-28T01:01:21.571Z,94.20
2023-01-28T01:03:57.843Z,94.80
2023-01-28T01:06:25.940Z,95.20
2023-01-28T01:08:53.291Z,95.90
2023-01-28T01:11:20.940Z,97.10
2023-01-28T01:13:55.092Z,97.50
2023-01-28T01:16:27.978Z,97.90
2023-01-28T01:18:56.481Z,98.50
2023-01-28T01:21:25.964Z,98.80
2023-01-28T01:23:53.826Z,99.20
2023-01-28T01:26:22.905Z,99.20
2023-01-28T01:28:51.790Z,98.70
2023-01-28T01:31:20.940Z,97.70
2023-01-28T01:33:50.302Z,97.50
2023-01-28T01:36:20.200Z,97.00
2023-01-28T01:38:47.931Z,97.20
2023-01-28T01:41:31.348Z,97.30
2023-01-28T01:44:04.511Z,97.30
2023-01-28T01:47:01.248Z,97.40
2023-01-28T01:49:29.121Z,98.10
2023-01-28T01:52:17.917Z,98.50
2023-01-28T01:54:54.384Z,99.50
2023-01-28T01:57:27.859Z,99.90
2023-01-28T01:59:56.769Z,99.90
2023-01-28T02:02:24.865Z,99.90
2023-01-28T02:04:52.399Z,99.90
2023-01-28T02:07:20.404Z,99.90
2023-01-28T02:09:47.927Z,99.90
2023-01-28T02:12:20.541Z,99.90
2023-01-28T02:15:01.473Z,99.90
2023-01-28T02:17:29.667Z,99.90
2023-01-28T02:20:02.661Z,99.90
2023-01-28T02:22:54.201Z,99.90
2023-01-28T02:25:39.926Z,99.90
2023-01-28T02:28:36.212Z,99.90
2023-01-28T02:31:16.243Z,99.90
2023-01-28T02:34:05.361Z,99.90
2023-01-28T02:36:47.927Z,99.90
2023-01-28T02:39:36.959Z,99.90
2023-01-28T02:42:09.816Z,99.90
2023-01-28T02:44:37.520Z,99.90
2023-01-28T02:47:29.106Z,99.90
2023-01-28T02:50:00.196Z,99.90
2023-01-28T02:52:59.489Z,99.90
2023-01-28T02:55:43.779Z,99.90
2023-01-28T02:58:36.200Z,99.90
2023-01-28T03:01:12.447Z,99.90
2023-01-28T03:04:03.196Z,99.90
2023-01-28T03:06:54.286Z,99.90
2023-01-28T03:09:24.380Z,99.90
2023-01-28T03:12:25.221Z,99.90
2023-01-28T03:15:21.561Z,99.90
2023-01-28T03:18:23.565Z,99.90
2023-01-28T03:21:38.467Z,99.90
2023-01-28T03:25:02.819Z,99.90
2023-01-28T03:28:11.976Z,99.90
2023-01-28T03:31:27.548Z,99.90
2023-01-28T03:34:17.680Z,99.90
2023-01-28T03:36:53.562Z,99.90
2023-01-28T03:39:47.172Z,99.90
2023-01-28T03:42:15.817Z,99.90
2023-01-28T03:44:54.924Z,99.90
2023-01-28T03:47:25.555Z,99.90
2023-01-28T03:49:57.429Z,99.90
2023-01-28T03:52:30.220Z,99.90
2023-01-28T03:55:16.473Z,99.90
2023-01-28T03:57:45.233Z,99.90
2023-01-28T04:00:14.100Z,99.90
2023-01-28T04:02:41.406Z,99.90
2023-01-28T04:05:16.246Z,99.90
2023-01-28T04:07:48.133Z,99.90
2023-01-28T04:10:21.234Z,99.90
2023-01-28T04:12:57.343Z,99.90
2023-01-28T04:15:26.190Z,99.90
2023-01-28T04:17:55.395Z,99.90
2023-01-28T04:20:29.634Z,99.90
2023-01-28T04:22:59.773Z,99.90
2023-01-28T04:25:27.405Z,99.90
2023-01-28T04:27:54.777Z,99.90
2023-01-28T04:30:25.922Z,99.90
2023-01-28T04:33:11.368Z,99.90
2023-01-28T04:35:56.067Z,99.90
2023-01-28T04:38:41.859Z,99.90
2023-01-28T04:41:29.633Z,99.90
2023-01-28T04:44:03.372Z,99.90
2023-01-28T04:46:51.048Z,99.90
2023-01-28T04:49:33.583Z,99.90
2023-01-28T04:52:19.623Z,99.90
2023-01-28T04:55:07.683Z,99.90
2023-01-28T04:57:35.299Z,99.90
2023-01-28T05:00:02.835Z,99.90
2023-01-28T05:02:30.273Z,99.90
2023-01-28T05:04:57.902Z,99.90
2023-01-28T05:07:58.541Z,99.90
2023-01-28T05:10:27.243Z,99.90
2023-01-28T05:12:55.240Z,99.90
2023-01-28T05:15:22.950Z,99.90
2023-01-28T05:17:54.419Z,99.90
2023-01-28T05:20:22.861Z,99.90
2023-01-28T05:22:51.022Z,99.90
2023-01-28T05:25:24.442Z,99.90
2023-01-28T05:27:52.600Z,99.90
2023-01-28T05:30:20.698Z,99.90
2023-01-28T05:32:48.614Z,99.90
2023-01-28T05:35:20.346Z,99.90
2023-01-28T05:37:48.396Z,99.90
2023-01-28T05:40:18.008Z,99.90
2023-01-28T05:42:46.107Z,99.90
2023-01-28T05:45:36.574Z,99.90
2023-01-28T05:48:08.258Z,99.90
2023-01-28T05:50:48.241Z,99.90
2023-01-28T05:53:29.552Z,99.90
2023-01-28T05:55:57.943Z,99.90
2023-01-28T05:58:27.774Z,99.90
2023-01-28T06:00:56.711Z,99.90
2023-01-28T06:03:29.873Z,99.90
2023-01-28T06:05:57.307Z,99.90
2023-01-28T06:08:24.682Z,99.90
2023-01-28T06:10:52.054Z,99.90
2023-01-28T06:13:19.463Z,99.90
2023-01-28T06:15:52.521Z,99.90
2023-01-28T06:18:37.855Z,99.90
2023-01-28T06:21:05.535Z,99.90
2023-01-28T06:23:33.180Z,99.90
2023-01-28T06:26:00.538Z,99.90
2023-01-28T06:28:27.961Z,99.90
2023-01-28T06:30:55.763Z,99.90
2023-01-28T06:33:24.409Z,99.90
2023-01-28T06:35:51.700Z,99.90
2023-01-28T06:38:19.314Z,99.90
2023-01-28T06:40:56.234Z,99.90
2023-01-28T06:43:27.973Z,99.90
2023-01-28T06:45:55.930Z,99.90
2023-01-28T06:48:24.072Z,99.90
2023-01-28T06:50:51.789Z,99.90
2023-01-28T06:53:19.342Z,99.90
2023-01-28T06:55:47.304Z,99.90
2023-01-28T06:58:14.926Z,99.90
2023-01-28T07:00:42.329Z,99.90
2023-01-28T07:03:09.673Z,99.90
2023-01-28T07:05:37.005Z,99.90
2023-01-28T07:08:04.302Z,99.90
2023-01-28T07:10:31.749Z,99.90
2023-01-28T07:12:59.082Z,99.90
2023-01-28T07:15:26.569Z,99.90
2023-01-28T07:17:54.137Z,99.90
2023-01-28T07:20:22.554Z,99.90
2023-01-28T07:22:50.238Z,99.90
2023-01-28T07:25:17.699Z,99.90
2023-01-28T07:27:50.649Z,99.90
2023-01-28T07:30:19.480Z,99.90
2023-01-28T07:32:47.460Z,99.90
2023-01-28T07:35:16.163Z,99.90
2023-01-28T07:37:43.444Z,99.90
2023-01-28T07:40:11.316Z,99.90
2023-01-28T07:42:38.841Z,99.90
2023-01-28T07:45:07.313Z,99.90
2023-01-28T07:47:34.805Z,99.90
2023-01-28T07:50:02.201Z,99.90
2023-01-28T07:52:29.665Z,99.90
2023-01-28T07:54:56.901Z,99.90
2023-01-28T07:57:24.361Z,99.90
2023-01-28T07:59:51.765Z,99.90
2023-01-28T08:02:19.419Z,99.90
2023-01-28T08:04:47.147Z,99.90
2023-01-28T08:07:14.557Z,99.90
2023-01-28T08:09:41.862Z,99.80
2023-01-28T08:12:11.933Z,98.90
2023-01-28T08:14:39.384Z,98.70
2023-01-28T08:17:06.713Z,97.90
2023-01-28T08:19:34.028Z,97.10
2023-01-28T08:22:01.411Z,96.10
2023-01-28T08:24:41.626Z,94.80
2023-01-28T08:27:12.147Z,93.40
2023-01-28T08:29:45.541Z,92.20
2023-01-28T08:32:12.823Z,89.80
2023-01-28T08:34:39.967Z,89.70
2023-01-28T08:37:08.983Z,88.50
2023-01-28T08:39:36.237Z,88.00
2023-01-28T08:42:03.835Z,87.80
2023-01-28T08:44:33.269Z,87.40
2023-01-28T08:47:00.927Z,86.90
2023-01-28T08:49:29.915Z,86.90
2023-01-28T08:51:57.506Z,86.50
2023-01-28T08:54:24.904Z,86.70
2023-01-28T08:56:52.420Z,86.20
2023-01-28T08:59:19.728Z,85.80
2023-01-28T09:01:47.294Z,85.90
2023-01-28T09:04:14.775Z,85.40
2023-01-28T09:06:42.290Z,85.30
2023-01-28T09:09:09.791Z,84.70
2023-01-28T09:11:44.659Z,85.50
2023-01-28T09:14:12.051Z,85.30
2023-01-28T09:16:39.679Z,84.90
2023-01-28T09:19:08.370Z,84.60
2023-01-28T09:21:35.874Z,83.70
2023-01-28T09:24:03.687Z,83.50
2023-01-28T09:26:31.115Z,82.90
2023-01-28T09:29:01.561Z,81.60
2023-01-28T09:31:28.950Z,82.00
2023-01-28T09:33:57.515Z,82.20
2023-01-28T09:36:24.950Z,82.90
2023-01-28T09:38:52.822Z,81.70
2023-01-28T09:41:30.093Z,82.10
2023-01-28T09:44:20.908Z,80.90
2023-01-28T09:46:48.200Z,80.60
2023-01-28T09:49:29.652Z,80.80
2023-01-28T09:51:57.796Z,80.60
2023-01-28T09:54:35.264Z,81.30
2023-01-28T09:57:21.182Z,81.10
2023-01-28T09:59:51.603Z,80.50
2023-01-28T10:02:33.423Z,82.10
2023-01-28T10:05:15.299Z,82.50
2023-01-28T10:08:06.494Z,83.50
2023-01-28T10:10:43.700Z,84.30
2023-01-28T10:13:29.759Z,85.00
2023-01-28T10:16:13.112Z,85.00
2023-01-28T10:18:49.341Z,83.90
2023-01-28T10:21:20.937Z,83.90
2023-01-28T10:26:42.768Z,82.30
2023-01-28T10:29:24.307Z,82.10
2023-01-28T10:32:40.444Z,81.00
2023-01-28T10:35:08.431Z,80.70
2023-01-28T10:37:39.794Z,81.80
2023-01-28T10:40:18.345Z,83.20
2023-01-28T10:42:46.430Z,83.60
2023-01-28T10:45:29.897Z,83.40
2023-01-28T10:48:23.201Z,82.90
2023-01-28T10:51:06.941Z,83.00
2023-01-28T10:53:53.557Z,83.00
2023-01-28T10:56:30.644Z,82.30
2023-01-28T10:59:20.290Z,80.70
2023-01-28T11:01:58.184Z,80.60
2023-01-28T11:04:31.969Z,81.60
2023-01-28T11:07:17.719Z,80.80
2023-01-28T11:09:52.716Z,81.20
2023-01-28T11:12:29.497Z,82.60
2023-01-28T11:15:01.834Z,82.80
2023-01-28T11:17:39.222Z,83.90
2023-01-28T11:20:23.865Z,84.30
2023-01-28T11:22:56.020Z,82.90
2023-01-28T11:25:40.429Z,81.10
2023-01-28T11:28:21.506Z,80.90
2023-01-28T11:30:57.211Z,78.10
2023-01-28T11:33:44.448Z,76.30
2023-01-28T11:36:26.618Z,74.80
2023-01-28T11:39:21.990Z,75.80
2023-01-28T11:41:49.728Z,75.70
2023-01-28T11:44:27.328Z,75.10
2023-01-28T11:47:27.852Z,74.30
2023-01-28T11:50:18.220Z,74.40
2023-01-28T11:53:06.395Z,74.20
2023-01-28T11:56:03.714Z,74.00
2023-01-28T11:58:52.440Z,73.70
2023-01-28T12:01:44.291Z,74.00
2023-01-28T12:04:43.585Z,72.40
2023-01-28T12:07:32.035Z,71.80
2023-01-28T12:10:24.374Z,71.00
2023-01-28T12:13:17.746Z,70.70
2023-01-28T12:16:04.025Z,70.10
2023-01-28T12:25:48.547Z,68.40
2023-01-28T12:28:35.908Z,69.90
2023-01-28T12:31:09.841Z,72.10
2023-01-28T12:34:19.313Z,71.60
2023-01-28T12:37:04.605Z,73.10
2023-01-28T12:39:41.069Z,75.00
2023-01-28T12:42:19.110Z,76.20
2023-01-28T12:45:05.115Z,74.80
2023-01-28T12:47:38.107Z,76.20
2023-01-28T12:50:18.899Z,76.40
2023-01-28T12:52:56.052Z,76.20
2023-01-28T12:55:43.649Z,75.80
2023-01-28T12:58:20.143Z,73.80
2023-01-28T13:00:57.645Z,74.20
2023-01-28T13:03:30.177Z,73.00
2023-01-28T13:06:06.265Z,72.60
2023-01-28T13:08:33.560Z,73.70
2023-01-28T13:11:03.405Z,73.00
2023-01-28T13:13:39.114Z,72.10
2023-01-28T13:16:09.308Z,76.10
2023-01-28T13:18:46.936Z,77.40
2023-01-28T13:21:14.543Z,78.10
2023-01-28T13:23:53.579Z,77.10
2023-01-28T13:26:27.132Z,77.10
2023-01-28T13:29:07.095Z,78.40
2023-01-28T13:31:41.162Z,79.90
2023-01-28T13:34:15.219Z,82.30
2023-01-28T13:36:49.548Z,84.20
2023-01-28T13:39:26.164Z,84.60
2023-01-28T13:42:15.261Z,81.40
2023-01-28T13:44:44.874Z,81.90
2023-01-28T13:47:23.681Z,83.00
2023-01-28T13:50:16.322Z,81.90
2023-01-28T13:52:49.954Z,82.40
2023-01-28T13:55:41.279Z,82.40
2023-01-28T13:58:33.764Z,84.40
2023-01-28T14:01:22.490Z,85.90
2023-01-28T14:03:52.907Z,86.50
2023-01-28T14:06:35.846Z,86.60
2023-01-28T14:09:32.058Z,86.00
2023-01-28T14:12:06.006Z,86.20
2023-01-28T14:15:03.938Z,84.30
2023-01-28T14:17:45.770Z,82.90
2023-01-28T14:20:38.093Z,83.30
2023-01-28T14:23:14.559Z,82.70
2023-01-28T14:26:26.605Z,83.20
2023-01-28T14:29:02.947Z,82.00
2023-01-28T14:31:35.600Z,81.10
2023-01-28T14:34:12.027Z,80.80
2023-01-28T14:36:45.201Z,81.30
2023-01-28T14:39:18.386Z,80.80
2023-01-28T14:41:51.741Z,80.20
2023-01-28T14:44:42.202Z,80.10
2023-01-28T14:47:38.899Z,80.80
2023-01-28T14:50:24.896Z,81.00
2023-01-28T14:53:20.019Z,79.70
2023-01-28T14:56:08.703Z,78.40
2023-01-28T14:58:53.525Z,78.20
2023-01-28T15:01:26.846Z,78.30
2023-01-28T15:03:55.122Z,77.30
2023-01-28T15:06:25.432Z,76.60
2023-01-28T15:08:55.325Z,77.30
2023-01-28T15:11:27.333Z,77.10
2023-01-28T15:13:59.461Z,77.00
2023-01-28T15:16:30.417Z,76.40
2023-01-28T15:19:01.181Z,76.20
2023-01-28T15:21:31.501Z,75.70
2023-01-28T15:24:02.584Z,74.70
2023-01-28T15:26:33.431Z,74.90
2023-01-28T15:29:01.311Z,74.10
2023-01-28T15:31:31.472Z,74.10
2023-01-28T15:34:06.617Z,73.70
2023-01-28T15:36:34.218Z,73.70
2023-01-28T15:39:14.556Z,73.30
2023-01-28T15:41:55.957Z,73.20
2023-01-28T15:44:34.156Z,74.00
2023-01-28T15:47:16.281Z,74.30
2023-01-28T15:49:46.715Z,74.60
2023-01-28T15:52:14.408Z,75.20
2023-01-28T15:54:44.886Z,76.20
2023-01-28T15:57:41.769Z,77.10
2023-01-28T16:00:18.723Z,77.50
2023-01-28T16:02:49.143Z,77.10
2023-01-28T16:05:34.771Z,76.80
2023-01-28T16:08:12.030Z,76.70
2023-01-28T16:10:39.661Z,76.60
2023-01-28T16:13:24.433Z,76.70
2023-01-28T16:15:54.094Z,76.90
2023-01-28T16:18:40.916Z,77.70
2023-01-28T16:21:12.750Z,78.00
2023-01-28T16:23:40.769Z,78.40
2023-01-28T16:26:22.636Z,79.20
2023-01-28T16:28:50.228Z,79.60
2023-01-28T16:31:18.261Z,79.40
2023-01-28T16:33:47.006Z,79.80
2023-01-28T16:36:16.635Z,79.40
2023-01-28T16:38:43.976Z,79.20
2023-01-28T16:41:29.514Z,79.10
2023-01-28T16:43:57.159Z,78.90
2023-01-28T16:46:27.645Z,79.10
2023-01-28T16:48:55.068Z,79.20
2023-01-28T16:51:22.487Z,79.70
2023-01-28T16:53:50.639Z,79.00
2023-01-28T16:56:44.467Z,79.60
2023-01-28T16:59:12.236Z,82.50
2023-01-28T17:01:40.117Z,86.90
2023-01-28T17:04:12.605Z,89.60
2023-01-28T17:06:43.238Z,91.70
2023-01-28T17:09:12.895Z,92.70
2023-01-28T17:11:40.977Z,93.00
2023-01-28T17:14:09.567Z,93.90
2023-01-28T17:16:37.071Z,94.90
2023-01-28T17:19:04.588Z,96.00
2023-01-28T17:21:32.255Z,96.70
2023-01-28T17:24:01.160Z,97.20
2023-01-28T17:26:31.242Z,97.30
2023-01-28T17:28:58.669Z,97.50
2023-01-28T17:31:26.750Z,97.90
2023-01-28T17:33:57.876Z,99.80
2023-01-28T17:36:26.354Z,99.90
2023-01-28T17:38:54.215Z,99.90
2023-01-28T17:41:22.044Z,99.90
2023-01-28T17:43:53.768Z,99.90
2023-01-28T17:46:22.437Z,99.90
2023-01-28T17:48:49.779Z,99.90
2023-01-28T17:51:17.570Z,99.90
2023-01-28T17:53:53.202Z,99.90
2023-01-28T17:56:28.632Z,99.90
2023-01-28T17:58:57.965Z,99.90
2023-01-28T18:01:26.833Z,99.90
2023-01-28T18:03:55.315Z,99.90
2023-01-28T18:06:23.537Z,99.90
2023-01-28T18:08:50.895Z,99.90
2023-01-28T18:11:20.313Z,99.90
2023-01-28T18:13:47.747Z,99.90
2023-01-28T18:16:18.253Z,99.90
2023-01-28T18:18:45.794Z,99.90
2023-01-28T18:21:52.634Z,99.90
2023-01-28T18:24:25.408Z,99.90
2023-01-28T18:26:55.666Z,99.90
2023-01-28T18:29:24.381Z,99.90
2023-01-28T18:31:56.436Z,99.90
2023-01-28T18:34:26.202Z,99.90
2023-01-28T18:36:54.120Z,99.90
2023-01-28T18:39:21.801Z,99.90
2023-01-28T18:41:49.232Z,99.90
2023-01-28T18:44:17.086Z,99.90
2023-01-28T18:46:44.400Z,99.90
2023-01-28T18:49:11.818Z,99.90
2023-01-28T18:51:39.169Z,99.90
2023-01-28T18:54:11.997Z,99.90
2023-01-28T18:56:41.363Z,99.90
2023-01-28T18:59:11.640Z,99.90
2023-01-28T19:01:40.518Z,99.90
2023-01-28T19:04:08.045Z,99.90
2023-01-28T19:06:35.516Z,99.90
2023-01-28T19:09:07.453Z,99.90
2023-01-28T19:11:35.659Z,99.90
2023-01-28T19:14:02.976Z,99.90
2023-01-28T19:16:30.693Z,99.90
2023-01-28T19:19:00.197Z,99.90
2023-01-28T19:21:29.768Z,99.90
2023-01-28T19:24:06.821Z,99.90
2023-01-28T19:26:34.431Z,99.90
2023-01-28T19:29:02.604Z,99.90
2023-01-28T19:31:30.165Z,99.90
2023-01-28T19:33:59.862Z,99.90
2023-01-28T19:36:31.196Z,99.90
2023-01-28T19:39:03.379Z,99.90
2023-01-28T19:41:30.871Z,99.90
2023-01-28T19:43:58.388Z,99.00
2023-01-28T19:46:26.566Z,98.70
2023-01-28T19:48:54.468Z,98.50
2023-01-28T19:51:22.364Z,97.80
2023-01-28T19:53:54.718Z,97.70
2023-01-28T19:56:24.481Z,97.10
2023-01-28T19:58:54.274Z,96.30
2023-01-28T20:01:30.008Z,95.30
2023-01-28T20:03:59.540Z,95.70
2023-01-28T20:06:29.257Z,98.00
2023-01-28T20:09:01.892Z,97.30
2023-01-28T20:11:29.776Z,97.00
2023-01-28T20:13:58.227Z,95.80
2023-01-28T20:16:27.704Z,94.80
2023-01-28T20:18:59.707Z,94.30
2023-01-28T20:21:28.021Z,94.90
2023-01-28T20:23:57.152Z,95.60
2023-01-28T20:26:28.760Z,96.00
2023-01-28T20:28:56.143Z,94.90
2023-01-28T20:31:25.663Z,95.70
2023-01-28T20:33:53.477Z,94.40
2023-01-28T20:36:20.788Z,94.90
2023-01-28T20:38:48.592Z,95.20
2023-01-28T20:41:20.490Z,95.60
2023-01-28T20:43:48.627Z,96.10
2023-01-28T20:46:19.417Z,96.30
2023-01-28T20:48:48.063Z,97.10
2023-01-28T20:51:18.085Z,97.60
2023-01-28T20:53:46.462Z,97.40
2023-01-28T20:56:16.217Z,98.50
2023-01-28T20:58:45.005Z,99.00
2023-01-28T21:01:24.027Z,99.40
2023-01-28T21:03:51.622Z,99.90
2023-01-28T21:06:19.496Z,99.90
2023-01-28T21:08:47.145Z,99.90
2023-01-28T21:11:14.795Z,99.90
2023-01-28T21:13:42.308Z,99.90
2023-01-28T21:16:09.644Z,99.90
2023-01-28T21:18:38.576Z,99.90
2023-01-28T21:21:09.159Z,99.90
2023-01-28T21:23:36.779Z,99.90
2023-01-28T21:26:05.794Z,99.90
2023-01-28T21:28:33.148Z,99.90
2023-01-28T21:31:33.144Z,99.90
2023-01-28T21:34:06.031Z,99.90
2023-01-28T21:36:37.396Z,99.90
2023-01-28T21:39:05.615Z,99.90
2023-01-28T21:41:33.105Z,99.90
2023-01-28T21:44:03.632Z,99.90
2023-01-28T21:46:33.429Z,99.90
2023-01-28T21:49:03.176Z,99.90
2023-01-28T21:51:36.146Z,99.90
2023-01-28T21:54:05.739Z,99.90
2023-01-28T21:56:33.367Z,99.90
2023-01-28T21:59:23.324Z,99.90
2023-01-28T22:01:50.645Z,99.90
2023-01-28T22:04:18.280Z,99.90
2023-01-28T22:06:45.832Z,99.90
2023-01-28T22:09:14.208Z,99.90
2023-01-28T22:11:50.516Z,99.90
2023-01-28T22:14:19.386Z,99.90
2023-01-28T22:16:50.764Z,99.90
2023-01-28T22:19:18.981Z,99.90
2023-01-28T22:21:50.042Z,99.90
2023-01-28T22:24:23.190Z,99.90
2023-01-28T22:26:52.131Z,99.90
2023-01-28T22:29:21.180Z,99.90
2023-01-28T22:31:50.226Z,99.90
2023-01-28T22:34:17.767Z,99.90
2023-01-28T22:36:46.364Z,99.90
2023-01-28T22:39:15.765Z,99.90
2023-01-28T22:41:44.640Z,99.90
2023-01-28T22:44:12.222Z,99.90
2023-01-28T22:46:39.712Z,99.90
2023-01-28T22:49:07.086Z,99.90
2023-01-28T22:51:36.196Z,99.90
2023-01-28T22:54:04.131Z,99.90
2023-01-28T22:56:32.012Z,99.90
2023-01-28T22:59:01.576Z,99.90
2023-01-28T23:01:29.964Z,99.90
2023-01-28T23:03:57.319Z,99.90
2023-01-28T23:06:26.688Z,99.50
2023-01-28T23:08:54.611Z,99.20
2023-01-28T23:11:25.721Z,99.30
2023-01-28T23:14:14.387Z,99.40
2023-01-28T23:17:00.213Z,99.50
2023-01-28T23:19:46.261Z,98.50
2023-01-28T23:22:43.737Z,98.70
2023-01-28T23:25:11.256Z,99.00
2023-01-28T23:27:38.694Z,99.80
2023-01-28T23:30:10.429Z,99.80
2023-01-28T23:32:45.028Z,99.80
2023-01-28T23:35:13.344Z,99.90
2023-01-28T23:37:41.717Z,99.90
2023-01-28T23:40:09.799Z,99.90
2023-01-28T23:42:37.352Z,99.90
2023-01-28T23:45:05.717Z,99.90
2023-01-28T23:47:33.148Z,99.90
2023-01-28T23:50:00.727Z,99.90
2023-01-28T23:52:28.092Z,99.90
2023-01-28T23:54:55.617Z,99.90
2023-01-28T23:57:23.042Z,99.90
2023-01-28T23:59:51.214Z,99.90
